Time;durP1;ratioP1;P1;durP2;ratioP2;P2;SDS_P1;SDS_P2;PMS_P1;PMS_P2;Temp;Humidity;BMP_temperature;BMP_pressure;BME280_temperature;BME280_humidity;BME280_pressure;Samples;Min_cycle;Max_cycle;Signal;HPM_P1;HPM_P2
2023/05/11 00:00:06;;;;;;;15.80;14.50;;;;;;;9.32;92.37;92970.81;5069605;28;20256;-75
2023/05/11 00:02:31;;;;;;;15.77;14.60;;;;;;;9.29;91.93;92976.53;5070379;28;20242;-75
2023/05/11 00:04:57;;;;;;;16.77;15.30;;;;;;;9.29;92.79;92975.78;5069635;28;20253;-75
2023/05/11 00:07:22;;;;;;;15.47;14.40;;;;;;;9.26;92.52;92971.84;5069969;28;20193;-75
2023/05/11 00:09:48;;;;;;;17.53;16.13;;;;;;;9.26;91.52;92974.47;5069275;28;20240;-76
2023/05/11 00:12:13;;;;;;;16.13;15.00;;;;;;;9.36;91.33;92986.72;5069886;28;20272;-75
2023/05/11 00:14:39;;;;;;;14.97;13.77;;;;;;;9.31;91.80;92977.06;5051674;28;20225;-75
2023/05/11 00:17:05;;;;;;;16.37;14.90;;;;;;;9.18;92.25;92982.03;5052336;28;20212;-75
2023/05/11 00:19:31;;;;;;;16.30;15.00;;;;;;;9.21;92.32;92986.72;5068973;28;20196;-75
2023/05/11 00:21:57;;;;;;;17.30;15.80;;;;;;;9.08;91.36;92950.75;5062759;28;20181;-75
2023/05/11 00:24:23;;;;;;;16.87;15.47;;;;;;;9.23;91.88;92984.66;5069254;28;20177;-75
2023/05/11 00:26:49;;;;;;;16.93;15.63;;;;;;;9.17;92.17;92996.88;5069604;28;20276;-75
2023/05/11 00:29:14;;;;;;;17.90;16.40;;;;;;;9.22;92.34;92985.66;5069559;28;20196;-76
2023/05/11 00:31:40;;;;;;;18.80;17.10;;;;;;;9.13;93.05;92987.22;5068444;28;20244;-75
2023/05/11 00:34:05;;;;;;;17.17;15.43;;;;;;;9.13;93.63;92984.63;5069697;28;20193;-75
2023/05/11 00:36:32;;;;;;;17.40;16.00;;;;;;;9.01;93.93;92994.53;5069233;28;20251;-75
2023/05/11 00:38:58;;;;;;;17.87;16.13;;;;;;;9.01;93.85;92987.47;5068894;28;20178;-75
2023/05/11 00:41:23;;;;;;;18.00;16.40;;;;;;;8.97;95.12;92996.06;5069188;28;20232;-75
2023/05/11 00:43:48;;;;;;;18.03;16.53;;;;;;;8.72;95.12;92967.38;5069387;28;20237;-75
2023/05/11 00:46:14;;;;;;;16.87;15.43;;;;;;;8.83;95.49;92987.19;5069270;28;20229;-75
2023/05/11 00:48:39;;;;;;;18.30;16.57;;;;;;;8.93;94.08;93000.25;5069314;28;20185;-75
2023/05/11 00:51:05;;;;;;;18.43;16.63;;;;;;;8.84;96.01;92992.13;5069228;28;20243;-75
2023/05/11 00:53:31;;;;;;;18.23;16.73;;;;;;;8.93;94.75;92998.44;5069300;28;20220;-75
2023/05/11 00:55:57;;;;;;;17.00;15.47;;;;;;;8.98;94.99;92997.66;5068662;28;20272;-75
2023/05/11 00:58:23;;;;;;;17.27;15.77;;;;;;;8.96;94.67;92995.31;5068848;28;20221;-75
2023/05/11 01:00:49;;;;;;;15.87;14.57;;;;;;;9.08;93.77;92992.44;5068992;28;20254;-75
2023/05/11 01:03:16;;;;;;;17.20;15.60;;;;;;;8.92;94.38;92980.47;5069212;28;20189;-75
2023/05/11 01:05:57;;;;;;;17.07;15.43;;;;;;;9.08;93.95;93001.03;5066878;28;20230;-76
2023/05/11 01:08:35;;;;;;;17.70;16.20;;;;;;;8.82;94.22;92964.81;5069308;28;20219;-75
2023/05/11 01:11:20;;;;;;;15.23;14.00;;;;;;;8.92;94.05;93002.06;5069048;28;20220;-75
2023/05/11 01:13:52;;;;;;;15.70;14.50;;;;;;;8.94;94.32;92991.38;5069195;28;20200;-75
2023/05/11 01:16:19;;;;;;;16.73;15.33;;;;;;;9.17;92.45;93001.28;5068498;28;20237;-75
2023/05/11 01:19:01;;;;;;;16.40;15.10;;;;;;;9.00;93.60;93000.75;5069017;28;20193;-75
2023/05/11 01:21:32;;;;;;;14.93;13.83;;;;;;;9.14;92.27;92994.00;5068624;28;20221;-75
2023/05/11 01:24:06;;;;;;;14.90;13.63;;;;;;;9.07;92.21;93004.69;5069077;28;20181;-75
2023/05/11 01:27:09;;;;;;;16.17;14.70;;;;;;;9.12;91.92;92996.84;5068253;28;20228;-75
2023/05/11 01:29:53;;;;;;;14.53;13.43;;;;;;;8.85;92.93;92998.13;5064115;28;20186;-75
2023/05/11 01:32:22;;;;;;;15.60;14.50;;;;;;;8.98;91.98;92995.03;5040478;28;20193;-75
2023/05/11 01:35:00;;;;;;;15.00;13.80;;;;;;;8.94;92.35;92993.97;5068765;28;20248;-75
2023/05/11 01:37:26;;;;;;;14.00;13.07;;;;;;;8.94;91.97;92993.97;5047058;28;20383;-75
2023/05/11 01:39:57;;;;;;;14.23;13.23;;;;;;;8.83;91.86;92989.78;5050443;28;20272;-75
2023/05/11 01:42:46;;;;;;;14.63;13.63;;;;;;;8.99;91.57;92991.38;5069068;28;20285;-75
2023/05/11 01:45:14;;;;;;;16.03;14.77;;;;;;;8.88;92.24;92987.19;5059867;28;20310;-75
2023/05/11 01:47:40;;;;;;;13.87;12.87;;;;;;;8.90;91.80;92985.91;5072481;28;20181;-75
2023/05/11 01:50:07;;;;;;;14.03;13.00;;;;;;;9.08;90.97;92989.81;5054020;28;20229;-75
2023/05/11 01:52:36;;;;;;;14.03;13.03;;;;;;;9.00;91.14;92990.34;5072176;28;20219;-75
2023/05/11 01:55:04;;;;;;;14.17;13.13;;;;;;;9.11;90.91;92994.50;5071500;28;20225;-75
2023/05/11 01:57:31;;;;;;;13.20;12.23;;;;;;;8.91;90.51;92984.09;5054825;28;20220;-76
2023/05/11 01:59:57;;;;;;;14.53;13.33;;;;;;;9.14;90.31;92994.78;5066652;28;20229;-75
2023/05/11 02:02:24;;;;;;;15.60;14.13;;;;;;;9.10;90.00;92988.53;5065700;28;20187;-75
2023/05/11 02:04:50;;;;;;;14.73;13.73;;;;;;;9.03;90.37;92995.81;5071974;28;20225;-76
2023/05/11 02:07:17;;;;;;;13.60;12.70;;;;;;;8.95;90.80;92982.53;5072099;28;20218;-75
2023/05/11 02:09:44;;;;;;;13.87;12.87;;;;;;;9.02;90.85;92980.44;5071418;28;20225;-75
2023/05/11 02:12:11;;;;;;;14.30;13.20;;;;;;;9.17;89.99;92980.44;5072032;28;20182;-75
2023/05/11 02:14:38;;;;;;;14.60;13.60;;;;;;;9.25;88.87;92978.13;5071359;28;20188;-75
2023/05/11 02:17:06;;;;;;;14.80;13.80;;;;;;;9.33;88.61;92982.03;5071783;28;20221;-75
2023/05/11 02:19:34;;;;;;;14.60;13.60;;;;;;;9.34;88.44;92983.56;5053606;28;20203;-75
2023/05/11 02:22:01;;;;;;;12.57;11.77;;;;;;;9.14;88.14;92963.53;5060100;28;20192;-76
2023/05/11 02:24:29;;;;;;;14.33;13.30;;;;;;;9.30;87.30;92979.94;5070884;28;20185;-75
2023/05/11 02:26:54;;;;;;;13.57;12.37;;;;;;;9.30;87.28;92974.72;5071747;28;20212;-75
2023/05/11 02:29:20;;;;;;;15.00;13.73;;;;;;;9.37;86.78;92968.22;5071203;28;20193;-75
2023/05/11 02:31:51;;;;;;;14.83;13.60;;;;;;;9.17;87.22;92957.78;5071791;28;20200;-75
2023/05/11 02:34:25;;;;;;;12.60;11.80;;;;;;;9.42;86.17;92983.84;5070899;28;20225;-76
2023/05/11 02:36:59;;;;;;;14.23;13.10;;;;;;;9.34;87.09;92967.94;5071157;28;20248;-75
2023/05/11 02:39:31;;;;;;;14.27;13.27;;;;;;;9.34;85.92;92973.16;5071092;28;20204;-76
2023/05/11 02:42:00;;;;;;;14.73;13.70;;;;;;;9.43;85.56;92979.41;5071768;28;20268;-76
2023/05/11 02:44:30;;;;;;;13.93;12.93;;;;;;;9.18;86.51;92961.94;5070736;28;20205;-72
2023/05/11 02:46:59;;;;;;;13.93;13.00;;;;;;;9.51;84.70;92981.47;5071473;28;20174;-72
2023/05/11 02:49:29;;;;;;;12.67;11.87;;;;;;;9.54;84.35;92981.75;5070792;28;20186;-72
2023/05/11 02:51:58;;;;;;;13.27;12.17;;;;;;;9.54;84.12;92975.75;5053289;28;20165;-71
2023/05/11 02:54:24;;;;;;;14.50;13.10;;;;;;;9.55;83.95;92982.53;5058014;28;20178;-72
2023/05/11 02:56:51;;;;;;;13.90;13.00;;;;;;;9.38;84.02;92967.19;5070789;28;20236;-71
2023/05/11 02:59:16;;;;;;;14.87;13.87;;;;;;;9.30;84.48;92959.88;5071102;28;20279;-71
2023/05/11 03:01:43;;;;;;;14.33;13.20;;;;;;;9.33;84.67;92974.19;5070666;28;20229;-71
2023/05/11 03:04:08;;;;;;;14.60;13.50;;;;;;;9.35;84.65;92972.13;5071080;28;20174;-72
2023/05/11 03:06:35;;;;;;;13.87;13.03;;;;;;;9.26;84.86;92958.06;5070804;28;20254;-71
2023/05/11 03:09:01;;;;;;;14.97;13.97;;;;;;;9.23;85.39;92974.97;5070931;28;20255;-72
2023/05/11 03:11:26;;;;;;;14.90;13.90;;;;;;;9.22;85.36;92973.44;5071033;28;20285;-72
2023/05/11 03:13:53;;;;;;;15.07;13.73;;;;;;;9.27;85.67;92972.66;5070835;28;20273;-72
2023/05/11 03:16:20;;;;;;;14.33;13.10;;;;;;;9.20;85.38;92967.69;5053485;28;20256;-72
2023/05/11 03:18:47;;;;;;;13.97;13.03;;;;;;;9.00;86.14;92949.47;5052980;28;20185;-72
2023/05/11 03:21:15;;;;;;;12.97;11.90;;;;;;;9.14;85.51;92970.56;5070210;28;20217;-71
2023/05/11 03:23:40;;;;;;;14.57;13.57;;;;;;;9.28;85.33;92974.19;5061340;28;20190;-72
2023/05/11 03:26:06;;;;;;;14.53;13.47;;;;;;;9.22;85.04;92972.63;5052468;28;20243;-71
2023/05/11 03:28:33;;;;;;;14.00;13.00;;;;;;;9.16;85.73;92974.47;5070951;28;20184;-72
2023/05/11 03:30:58;;;;;;;14.70;13.67;;;;;;;9.13;84.98;92966.41;5069724;28;20277;-71
2023/05/11 03:33:24;;;;;;;14.50;13.43;;;;;;;9.31;84.46;92982.28;5070864;28;20173;-71
2023/05/11 03:35:52;;;;;;;14.70;13.50;;;;;;;9.11;85.24;92971.06;5069913;28;20237;-71
2023/05/11 03:38:21;;;;;;;14.33;13.13;;;;;;;9.30;84.45;92974.72;5062950;28;20895;-72
2023/05/11 03:40:51;;;;;;;14.30;13.33;;;;;;;9.21;84.56;92969.25;5069531;28;20275;-72
2023/05/11 03:43:19;;;;;;;13.03;12.13;;;;;;;9.25;84.73;92977.31;5070460;28;20253;-72
2023/05/11 03:45:46;;;;;;;14.57;13.47;;;;;;;9.22;84.40;92968.22;5069464;28;20247;-72
2023/05/11 03:48:14;;;;;;;13.93;12.80;;;;;;;9.31;83.69;92984.88;5070576;28;20197;-71
2023/05/11 03:50:40;;;;;;;14.23;13.07;;;;;;;9.20;83.80;92969.50;5069288;28;21432;-69
2023/05/11 03:53:06;;;;;;;14.67;13.37;;;;;;;9.30;84.11;92985.16;5061870;28;20197;-69
2023/05/11 03:55:32;;;;;;;14.50;13.23;;;;;;;9.16;84.34;92976.28;5066176;28;20293;-74
2023/05/11 03:57:57;;;;;;;15.20;13.83;;;;;;;9.32;84.33;92991.66;5069112;28;20220;-69
2023/05/11 04:00:23;;;;;;;14.77;13.67;;;;;;;9.26;84.54;92989.31;5069272;28;20312;-68
2023/05/11 04:02:48;;;;;;;14.80;13.70;;;;;;;9.10;85.40;92995.56;5070004;28;20208;-68
2023/05/11 04:05:14;;;;;;;14.53;13.53;;;;;;;9.01;85.83;92995.28;5069625;28;20244;-67
2023/05/11 04:07:40;;;;;;;15.40;14.20;;;;;;;8.96;86.85;92997.13;5069353;28;20194;-67
2023/05/11 04:10:06;;;;;;;15.27;14.07;;;;;;;8.97;86.38;92998.66;5069461;28;20276;-68
2023/05/11 04:12:31;;;;;;;15.47;14.40;;;;;;;8.87;86.55;92989.03;5070011;28;20177;-70
2023/05/11 04:14:57;;;;;;;15.87;14.30;;;;;;;8.91;87.27;92997.09;5065198;28;20311;-70
2023/05/11 04:17:23;;;;;;;14.73;13.17;;;;;;;8.67;86.71;92949.19;5068716;28;20208;-72
2023/05/11 04:19:48;;;;;;;14.77;13.37;;;;;;;8.87;87.31;93001.28;5068043;28;20232;-71
2023/05/11 04:22:13;;;;;;;15.10;13.93;;;;;;;8.88;87.77;93008.03;5068906;28;20189;-71
2023/05/11 04:24:39;;;;;;;14.97;13.97;;;;;;;8.83;87.65;93006.22;5067195;28;20294;-70
2023/05/11 04:27:04;;;;;;;14.33;13.33;;;;;;;8.76;88.57;93012.69;5057669;28;20887;-69
2023/05/11 04:29:30;;;;;;;16.90;14.10;;;;;;;8.78;88.69;93011.41;5068273;28;20169;-69
2023/05/11 04:31:55;;;;;;;14.80;13.70;;;;;;;8.64;89.05;93010.31;5067715;28;20184;-69
2023/05/11 04:34:21;;;;;;;15.63;14.13;;;;;;;8.54;89.50;93001.72;5067707;28;20229;-70
2023/05/11 04:36:48;;;;;;;13.97;12.83;;;;;;;8.69;89.49;93014.75;5067603;28;20225;-73
2023/05/11 04:39:14;;;;;;;14.97;13.87;;;;;;;8.81;89.10;93010.13;5064831;28;20185;-72
2023/05/11 04:41:40;;;;;;;16.80;15.53;;;;;;;8.85;89.11;93021.56;5068385;28;20244;-72
2023/05/11 04:44:05;;;;;;;16.47;15.07;;;;;;;8.82;89.13;93019.47;5068616;28;20189;-72
2023/05/11 04:46:31;;;;;;;15.90;14.43;;;;;;;8.79;89.31;93015.59;5086956;28;20212;-72
2023/05/11 04:48:56;;;;;;;15.97;14.63;;;;;;;8.77;89.74;93012.44;5089163;28;21598;-72
2023/05/11 04:51:21;;;;;;;17.47;15.20;;;;;;;8.85;90.05;93013.75;5089059;28;20280;-72
2023/05/11 04:53:47;;;;;;;16.40;15.10;;;;;;;8.75;89.80;93011.91;5089424;28;20181;-72
2023/05/11 04:56:12;;;;;;;16.13;14.53;;;;;;;8.63;90.83;93003.56;5088371;28;20220;-72
2023/05/11 04:58:37;;;;;;;16.47;15.10;;;;;;;8.63;91.15;93015.78;5088633;28;20180;-72
2023/05/11 05:01:03;;;;;;;17.87;16.07;;;;;;;8.58;91.23;93018.38;5088131;28;20220;-72
2023/05/11 05:03:28;;;;;;;17.07;15.57;;;;;;;8.64;91.68;93012.16;5088610;28;20217;-72
2023/05/11 05:05:54;;;;;;;17.60;15.77;;;;;;;8.73;91.21;93021.03;5088350;28;20220;-72
2023/05/11 05:08:20;;;;;;;18.10;16.47;;;;;;;8.55;90.97;92982.44;5104219;28;20188;-72
2023/05/11 05:10:47;;;;;;;17.83;16.23;;;;;;;8.83;90.92;93021.03;5088210;28;20860;-72
2023/05/11 05:13:12;;;;;;;18.57;16.77;;;;;;;8.60;91.01;92967.66;5102182;28;20181;-74
2023/05/11 05:15:37;;;;;;;27.63;25.27;;;;;;;8.91;91.15;93023.94;5089198;28;20224;-72
2023/05/11 05:18:03;;;;;;;18.77;16.97;;;;;;;9.02;90.57;93038.53;5090363;28;20228;-72
2023/05/11 05:20:28;;;;;;;18.43;16.57;;;;;;;8.94;89.90;93028.63;5075339;28;20232;-72
2023/05/11 05:22:54;;;;;;;18.40;16.70;;;;;;;9.15;89.59;93037.25;5094958;28;20180;-72
2023/05/11 05:25:20;;;;;;;17.20;15.60;;;;;;;9.11;89.73;93044.78;5092738;28;20246;-72
2023/05/11 05:27:45;;;;;;;19.17;17.33;;;;;;;9.18;89.47;93026.31;5092970;28;20231;-72
2023/05/11 05:30:11;;;;;;;18.07;16.43;;;;;;;9.39;88.75;93031.28;5092696;28;20252;-72
2023/05/11 05:32:36;;;;;;;17.73;16.10;;;;;;;9.26;88.03;93042.19;5075012;28;20181;-72
2023/05/11 05:35:02;;;;;;;17.27;15.60;;;;;;;9.41;87.89;93059.66;5092356;28;20262;-71
2023/05/11 05:37:28;;;;;;;19.00;16.23;;;;;;;9.60;87.67;93060.72;5093039;28;20302;-72
2023/05/11 05:39:53;;;;;;;17.00;15.47;;;;;;;9.79;86.54;93056.53;5092681;28;20228;-72
2023/05/11 05:42:19;;;;;;;17.43;15.73;;;;;;;9.98;84.29;93054.19;5092817;28;20197;-71
2023/05/11 05:44:44;;;;;;;17.17;15.67;;;;;;;9.88;84.51;93073.22;5092254;28;20228;-72
2023/05/11 05:47:10;;;;;;;16.17;14.67;;;;;;;9.90;84.36;93058.06;5092805;28;20254;-72
2023/05/11 05:49:35;;;;;;;16.07;14.67;;;;;;;9.84;84.51;93064.34;5092150;28;20184;-72
2023/05/11 05:52:01;;;;;;;17.10;15.63;;;;;;;9.71;85.17;93064.91;5097901;28;20188;-72
2023/05/11 05:54:26;;;;;;;18.07;16.40;;;;;;;9.85;85.34;93068.53;5092331;28;20177;-72
2023/05/11 05:56:52;;;;;;;17.27;15.63;;;;;;;9.88;85.37;93065.41;5092535;28;20238;-72
2023/05/11 05:59:20;;;;;;;15.30;13.87;;;;;;;9.85;84.53;93055.50;5104954;28;20184;-72
2023/05/11 06:01:46;;;;;;;16.90;15.60;;;;;;;9.94;85.23;93053.91;5092001;28;20215;-72
2023/05/11 06:04:12;;;;;;;17.17;15.67;;;;;;;9.78;85.03;93065.41;5074828;28;20203;-72
2023/05/11 06:06:37;;;;;;;17.93;16.23;;;;;;;9.90;85.00;93068.50;5092152;28;20229;-72
2023/05/11 06:09:03;;;;;;;17.70;16.00;;;;;;;9.87;85.00;93058.59;5092214;28;20181;-72
2023/05/11 06:11:28;;;;;;;17.30;15.73;;;;;;;9.80;84.45;93038.00;5091449;28;20213;-72
2023/05/11 06:13:54;;;;;;;16.73;15.10;;;;;;;9.88;84.91;93075.84;5092092;28;20172;-72
2023/05/11 06:16:19;;;;;;;17.97;16.20;;;;;;;9.76;84.50;93057.84;5091372;28;20220;-72
2023/05/11 06:18:45;;;;;;;16.57;15.13;;;;;;;9.88;84.97;93064.63;5092126;28;20217;-72
2023/05/11 06:21:10;;;;;;;16.83;15.33;;;;;;;9.96;84.21;93077.88;5091586;28;20220;-72
2023/05/11 06:23:36;;;;;;;17.67;15.97;;;;;;;10.12;83.93;93079.47;5091969;28;20180;-72
2023/05/11 06:26:02;;;;;;;17.03;15.37;;;;;;;10.19;83.36;93077.38;5091476;28;20251;-72
2023/05/11 06:28:28;;;;;;;17.33;15.67;;;;;;;10.04;83.93;93074.75;5091927;28;20176;-72
2023/05/11 06:30:57;;;;;;;16.70;15.20;;;;;;;10.29;83.04;93089.63;5090742;28;21244;-72
2023/05/11 06:33:24;;;;;;;17.23;15.63;;;;;;;10.44;82.72;93079.94;5092188;28;20185;-72
2023/05/11 06:35:49;;;;;;;17.80;16.00;;;;;;;10.45;81.62;93071.03;5090843;28;20224;-72
2023/05/11 06:38:14;;;;;;;17.53;16.03;;;;;;;10.42;81.98;93082.03;5091747;28;20778;-72
2023/05/11 06:40:40;;;;;;;18.77;16.83;;;;;;;10.62;80.78;93089.78;5091278;28;20224;-72
2023/05/11 06:43:06;;;;;;;17.90;16.17;;;;;;;10.49;82.05;93087.72;5091625;28;20192;-72
2023/05/11 06:45:31;;;;;;;17.23;15.63;;;;;;;10.38;80.53;93062.69;5091255;28;20383;-72
2023/05/11 06:47:56;;;;;;;18.33;16.63;;;;;;;10.50;81.22;93088.53;5091611;28;20179;-72
2023/05/11 06:50:22;;;;;;;16.40;14.80;;;;;;;10.52;79.99;93087.19;5091055;28;20288;-72
2023/05/11 06:52:47;;;;;;;17.03;15.60;;;;;;;10.72;80.11;93087.13;5091384;28;20184;-72
2023/05/11 06:55:13;;;;;;;16.63;15.13;;;;;;;10.78;78.94;93090.50;5091001;28;20224;-72
2023/05/11 06:57:38;;;;;;;16.97;15.20;;;;;;;10.98;77.89;93091.22;5091392;28;20208;-72
2023/05/11 07:00:05;;;;;;;16.93;15.23;;;;;;;11.22;77.68;93099.97;5090795;28;20304;-72
2023/05/11 07:02:30;;;;;;;17.20;15.70;;;;;;;11.47;75.32;93098.25;5089828;28;20189;-71
2023/05/11 07:04:57;;;;;;;17.63;15.50;;;;;;;11.95;74.62;93107.88;5090612;28;20243;-72
2023/05/11 07:07:22;;;;;;;17.67;16.10;;;;;;;12.02;74.24;93100.47;5072710;28;20181;-72
2023/05/11 07:09:48;;;;;;;16.73;15.23;;;;;;;12.07;72.74;93103.06;5090769;28;20225;-72
2023/05/11 07:12:13;;;;;;;18.40;16.57;;;;;;;11.95;73.28;93106.03;5091106;28;20264;-72
2023/05/11 07:14:39;;;;;;;17.53;16.07;;;;;;;12.04;72.62;93093.13;5069898;28;20221;-72
2023/05/11 07:17:04;;;;;;;16.93;15.13;;;;;;;12.16;73.16;93110.03;5071073;28;20248;-72
2023/05/11 07:19:30;;;;;;;17.80;16.20;;;;;;;12.44;71.28;93101.41;5070444;28;20186;-72
2023/05/11 07:21:55;;;;;;;16.37;14.77;;;;;;;12.70;70.49;93104.53;5070716;28;20206;-72
2023/05/11 07:24:20;;;;;;;17.87;16.37;;;;;;;12.62;71.22;93113.00;5070456;28;20193;-72
2023/05/11 07:26:46;;;;;;;17.77;16.10;;;;;;;12.99;69.55;93105.25;5056217;28;20190;-71
2023/05/11 07:29:11;;;;;;;17.63;15.83;;;;;;;13.02;70.54;93109.97;5070877;28;20182;-72
2023/05/11 07:31:37;;;;;;;17.33;15.67;;;;;;;13.88;67.82;93118.19;5069971;28;20221;-72
2023/05/11 07:34:03;;;;;;;17.07;15.43;;;;;;;13.47;67.85;93112.00;5070611;28;20182;-72
2023/05/11 07:36:29;;;;;;;17.70;15.90;;;;;;;13.74;67.57;93116.59;5070160;28;20255;-72
2023/05/11 07:38:56;;;;;;;17.57;15.97;;;;;;;13.89;65.95;93119.00;5070668;28;20181;-72
2023/05/11 07:41:25;;;;;;;17.90;16.23;;;;;;;13.73;65.47;93121.06;5068927;28;20240;-72
2023/05/11 07:43:51;;;;;;;17.77;16.17;;;;;;;13.26;67.64;93104.69;5070549;28;20224;-72
2023/05/11 07:46:16;;;;;;;17.13;15.60;;;;;;;13.56;65.05;93126.03;5070158;28;20217;-72
2023/05/11 07:48:41;;;;;;;17.73;16.13;;;;;;;13.45;67.07;93121.22;5070445;28;20180;-72
2023/05/11 07:51:07;;;;;;;18.07;16.37;;;;;;;13.23;67.64;93113.88;5069964;28;20230;-72
2023/05/11 07:53:33;;;;;;;18.47;16.63;;;;;;;13.32;67.59;93122.69;5070362;28;20224;-72
2023/05/11 07:55:59;;;;;;;17.63;16.03;;;;;;;13.16;67.98;93123.16;5069584;28;20222;-72
2023/05/11 07:58:25;;;;;;;19.90;16.73;;;;;;;12.88;68.78;93122.16;5070508;28;20219;-72
2023/05/11 08:00:50;;;;;;;17.53;15.73;;;;;;;13.00;68.99;93109.44;5069055;28;20242;-72
2023/05/11 08:03:16;;;;;;;18.50;16.53;;;;;;;13.08;67.74;93119.31;5070324;28;20184;-71
2023/05/11 08:05:41;;;;;;;16.73;14.83;;;;;;;13.16;69.18;93116.06;5070036;28;20228;-71
2023/05/11 08:08:07;;;;;;;17.30;15.67;;;;;;;13.17;67.83;93101.91;5070343;28;20182;-72
2023/05/11 08:10:32;;;;;;;18.13;15.80;;;;;;;13.07;68.40;93117.75;5069608;28;20231;-72
2023/05/11 08:12:58;;;;;;;16.90;15.30;;;;;;;13.39;67.58;93125.72;5070053;28;20218;-72
2023/05/11 08:15:24;;;;;;;18.17;16.47;;;;;;;13.48;66.83;93123.28;5069223;28;20221;-72
2023/05/11 08:17:49;;;;;;;17.40;15.67;;;;;;;13.63;66.96;93139.59;5069951;28;20232;-72
2023/05/11 08:20:15;;;;;;;16.27;14.97;;;;;;;13.86;66.24;93125.59;5069524;28;20237;-72
2023/05/11 08:22:40;;;;;;;17.13;15.63;;;;;;;13.68;65.14;93121.13;5070083;28;20186;-72
2023/05/11 08:25:06;;;;;;;17.13;15.53;;;;;;;13.69;65.43;93129.78;5069657;28;20219;-73
2023/05/11 08:27:32;;;;;;;16.83;15.33;;;;;;;13.67;65.58;93122.19;5052255;28;20181;-72
2023/05/11 08:29:57;;;;;;;17.73;16.27;;;;;;;13.86;65.60;93122.97;5069465;28;20217;-73
2023/05/11 08:32:23;;;;;;;16.60;15.10;;;;;;;13.70;65.78;93119.00;5069746;28;20191;-70
2023/05/11 08:34:48;;;;;;;17.67;15.87;;;;;;;13.85;66.36;93125.88;5068851;28;20229;-71
2023/05/11 08:37:13;;;;;;;18.23;16.53;;;;;;;13.78;65.25;93131.50;5069824;28;20212;-72
2023/05/11 08:39:39;;;;;;;18.10;16.50;;;;;;;13.89;63.78;93119.78;5069010;28;20228;-71
2023/05/11 08:42:06;;;;;;;17.13;15.63;;;;;;;13.90;64.86;93126.56;5069773;28;20186;-71
2023/05/11 08:44:34;;;;;;;17.80;16.40;;;;;;;13.79;65.57;93121.78;5068882;28;20196;-71
2023/05/11 08:46:59;;;;;;;17.00;15.57;;;;;;;13.65;67.80;93118.31;5069863;28;20951;-71
2023/05/11 08:49:25;;;;;;;17.37;15.80;;;;;;;14.31;64.44;93122.28;5069080;28;20188;-71
2023/05/11 08:51:51;;;;;;;17.03;15.47;;;;;;;14.55;63.57;93121.34;5051957;28;20186;-70
2023/05/11 08:54:16;;;;;;;18.23;16.57;;;;;;;14.11;63.92;93117.34;5072451;28;20687;-70
2023/05/11 08:56:42;;;;;;;17.37;15.97;;;;;;;13.92;65.34;93116.56;5073200;28;20225;-70
2023/05/11 08:59:08;;;;;;;16.93;15.33;;;;;;;13.57;66.68;93111.06;5073793;28;20216;-71
2023/05/11 09:01:39;;;;;;;18.43;16.83;;;;;;;13.88;66.30;93112.19;5073106;28;20232;-71
2023/05/11 09:04:05;;;;;;;17.87;16.37;;;;;;;14.13;64.48;93104.69;5075146;28;20174;-71
2023/05/11 09:06:32;;;;;;;18.57;16.70;;;;;;;14.26;64.00;93118.94;5073552;28;20256;-70
2023/05/11 09:08:58;;;;;;;17.80;16.30;;;;;;;14.30;64.17;93104.19;5073083;28;20200;-70
2023/05/11 09:11:24;;;;;;;16.93;15.53;;;;;;;14.51;63.47;93109.88;5073051;28;20225;-70
2023/05/11 09:13:50;;;;;;;16.40;15.10;;;;;;;14.86;62.95;93111.84;5072989;28;20189;-71
2023/05/11 09:16:15;;;;;;;16.90;15.60;;;;;;;14.99;62.41;93118.97;5073051;28;20214;-70
2023/05/11 09:18:52;;;;;;;16.77;15.30;;;;;;;14.88;63.39;93120.97;5073168;28;20234;-69
2023/05/11 09:21:18;;;;;;;17.33;15.93;;;;;;;14.83;63.54;93115.06;5072761;28;20271;-72
2023/05/11 09:23:48;;;;;;;16.17;14.90;;;;;;;14.87;63.28;93123.91;5073137;28;20192;-70
2023/05/11 09:26:20;;;;;;;16.27;14.87;;;;;;;14.89;64.50;93121.78;5072750;28;20225;-71
2023/05/11 09:28:53;;;;;;;17.57;16.00;;;;;;;15.17;62.37;93118.06;5073410;28;20182;-69
2023/05/11 09:31:33;;;;;;;14.10;13.20;;;;;;;15.08;63.23;93115.34;5072408;28;20224;-70
2023/05/11 09:34:13;;;;;;;14.43;13.23;;;;;;;14.91;63.71;93109.13;5073217;28;20228;-70
2023/05/11 09:36:46;;;;;;;14.57;13.57;;;;;;;14.68;63.98;93120.59;5054550;28;20229;-71
2023/05/11 09:39:13;;;;;;;14.60;13.50;;;;;;;14.18;66.47;93107.22;5059606;28;20188;-71
2023/05/11 09:41:38;;;;;;;15.43;14.30;;;;;;;14.95;65.03;93121.38;5072727;28;20224;-70
2023/05/11 09:44:12;;;;;;;14.80;13.50;;;;;;;14.85;64.52;93126.06;5072837;28;20185;-71
2023/05/11 09:46:39;;;;;;;15.23;13.80;;;;;;;14.97;65.11;93118.47;5072685;28;20217;-69
2023/05/11 09:49:05;;;;;;;15.03;13.93;;;;;;;14.91;63.28;93119.63;5072693;28;20197;-69
2023/05/11 09:51:36;;;;;;;13.80;12.80;;;;;;;14.52;65.69;93100.91;5071457;28;20214;-70
2023/05/11 09:54:22;;;;;;;14.20;13.10;;;;;;;14.45;66.71;93096.81;5071982;28;20197;-69
2023/05/11 09:56:49;;;;;;;14.90;13.87;;;;;;;14.51;66.56;93104.63;5109416;28;20219;-71
2023/05/11 09:59:39;;;;;;;14.10;13.07;;;;;;;15.04;65.23;93097.81;5093302;28;20189;-70
2023/05/11 10:02:20;;;;;;;13.97;12.97;;;;;;;14.69;66.42;93101.13;5071436;28;20201;-70
2023/05/11 10:04:46;;;;;;;13.80;12.77;;;;;;;14.67;65.54;93092.75;5069625;28;20233;-68
2023/05/11 10:07:40;;;;;;;14.17;13.13;;;;;;;14.45;66.39;93096.81;5072606;28;20174;-71
2023/05/11 10:10:07;;;;;;;13.87;12.87;;;;;;;14.67;66.75;93093.53;5071560;28;20251;-73
2023/05/11 10:12:36;;;;;;;14.83;13.63;;;;;;;14.86;66.55;93096.06;5055777;28;20185;-73
2023/05/11 10:15:07;;;;;;;13.97;12.97;;;;;;;14.95;66.11;93084.59;5072145;28;20213;-73
2023/05/11 10:17:34;;;;;;;13.57;12.67;;;;;;;14.95;65.92;93083.78;5072198;28;20213;-73
2023/05/11 10:20:03;;;;;;;14.50;13.33;;;;;;;15.03;64.88;93091.78;5070524;28;20221;-74
2023/05/11 10:22:29;;;;;;;14.67;13.43;;;;;;;15.07;65.73;93086.69;5071841;28;20191;-73
2023/05/11 10:24:58;;;;;;;14.97;13.80;;;;;;;15.30;64.48;93088.34;5071637;28;20305;-73
2023/05/11 10:27:24;;;;;;;15.47;14.03;;;;;;;15.20;65.11;93089.34;5071960;28;20193;-74
2023/05/11 10:29:50;;;;;;;15.17;13.90;;;;;;;14.51;67.16;93083.59;5071386;28;20236;-73
2023/05/11 10:32:17;;;;;;;14.30;13.23;;;;;;;15.11;64.42;93077.16;5072053;28;20193;-72
2023/05/11 10:34:45;;;;;;;15.77;14.47;;;;;;;13.97;69.29;93071.88;5074197;28;20228;-74
2023/05/11 10:37:11;;;;;;;16.33;14.90;;;;;;;14.47;66.36;93072.88;5091854;28;20192;-73
2023/05/11 10:39:39;;;;;;;14.97;13.83;;;;;;;14.67;65.62;93067.25;5091061;28;20215;-72
2023/05/11 10:42:28;;;;;;;15.70;14.40;;;;;;;14.08;69.17;93069.88;5074289;28;20180;-73
2023/05/11 10:45:14;;;;;;;16.23;14.77;;;;;;;14.06;69.52;93077.25;5086232;28;20233;-74
2023/05/11 10:47:46;;;;;;;15.43;14.13;;;;;;;14.05;69.69;93067.81;5071300;28;20182;-73
2023/05/11 10:50:31;;;;;;;15.53;14.20;;;;;;;14.55;69.10;93055.66;5071169;28;20221;-73
2023/05/11 10:53:29;;;;;;;13.70;12.73;;;;;;;14.63;68.36;93070.75;5042617;28;20904;-73
2023/05/11 10:56:33;;;;;;;15.33;13.87;;;;;;;15.15;65.97;93072.88;5070721;28;20878;-74
2023/05/11 10:59:36;;;;;;;14.23;13.17;;;;;;;15.19;63.21;93079.13;5070931;28;20185;-72
2023/05/11 11:02:02;;;;;;;15.27;13.80;;;;;;;14.89;65.47;93071.81;5053380;28;20217;-74
2023/05/11 11:04:45;;;;;;;14.57;13.47;;;;;;;15.15;64.21;93072.88;5070800;28;20169;-73
2023/05/11 11:07:15;;;;;;;13.97;12.87;;;;;;;14.91;65.90;93052.03;5071415;28;20186;-73
2023/05/11 11:09:55;;;;;;;14.47;13.37;;;;;;;15.31;63.94;93074.13;5053211;28;20232;-73
2023/05/11 11:12:23;;;;;;;14.73;13.53;;;;;;;14.67;68.41;93050.69;5058922;28;20193;-74
2023/05/11 11:14:59;;;;;;;13.97;12.97;;;;;;;15.30;63.30;93059.41;5070563;28;20255;-73
2023/05/11 11:17:30;;;;;;;12.60;11.70;;;;;;;14.95;64.21;93062.75;5070779;28;20217;-75
2023/05/11 11:19:56;;;;;;;13.27;12.23;;;;;;;14.92;63.26;93047.56;5070541;28;20248;-72
2023/05/11 11:22:37;;;;;;;14.00;13.00;;;;;;;15.28;63.37;93072.06;5071009;28;20212;-74
2023/05/11 11:25:04;;;;;;;13.57;12.63;;;;;;;15.40;63.07;93067.88;5069659;28;20220;-73